sensor_id;sensor_type;location;lat;lon;timestamp;P1;durP1;ratioP1;P2;durP2;ratioP2
18647;SDS011;9453;50.294;18.644;2022-07-17T04:01:49;12.47;;;3.60;;
18647;SDS011;9453;50.294;18.644;2022-07-17T04:04:16;8.50;;;3.87;;
18647;SDS011;9453;50.294;18.644;2022-07-17T04:06:42;19.47;;;4.13;;
18647;SDS011;9453;50.294;18.644;2022-07-17T04:09:09;11.87;;;3.50;;
18647;SDS011;9453;50.294;18.644;2022-07-17T04:11:36;19.37;;;3.80;;
18647;SDS011;9453;50.294;18.644;2022-07-17T04:14:03;15.77;;;3.97;;
18647;SDS011;9453;50.294;18.644;2022-07-17T04:16:30;14.17;;;4.27;;
18647;SDS011;9453;50.294;18.644;2022-07-17T04:18:59;19.20;;;4.00;;
18647;SDS011;9453;50.294;18.644;2022-07-17T04:21:25;17.30;;;4.40;;
18647;SDS011;9453;50.294;18.644;2022-07-17T04:23:52;22.47;;;4.20;;
18647;SDS011;9453;50.294;18.644;2022-07-17T04:26:19;13.30;;;3.97;;
18647;SDS011;9453;50.294;18.644;2022-07-17T04:28:46;13.23;;;4.13;;
18647;SDS011;9453;50.294;18.644;2022-07-17T04:31:13;15.93;;;4.00;;
18647;SDS011;9453;50.294;18.644;2022-07-17T04:33:40;11.57;;;3.47;;
18647;SDS011;9453;50.294;18.644;2022-07-17T04:36:08;11.17;;;3.50;;
18647;SDS011;9453;50.294;18.644;2022-07-17T04:38:35;12.40;;;3.40;;
18647;SDS011;9453;50.294;18.644;2022-07-17T04:41:02;8.33;;;3.00;;
18647;SDS011;9453;50.294;18.644;2022-07-17T04:43:29;13.43;;;4.10;;
18647;SDS011;9453;50.294;18.644;2022-07-17T04:45:56;10.13;;;3.40;;
18647;SDS011;9453;50.294;18.644;2022-07-17T04:48:23;10.90;;;3.50;;
18647;SDS011;9453;50.294;18.644;2022-07-17T04:50:50;13.20;;;3.63;;
18647;SDS011;9453;50.294;18.644;2022-07-17T04:53:18;8.43;;;2.87;;
18647;SDS011;9453;50.294;18.644;2022-07-17T04:55:45;7.40;;;2.60;;
18647;SDS011;9453;50.294;18.644;2022-07-17T04:58:12;15.80;;;3.97;;
18647;SDS011;9453;50.294;18.644;2022-07-17T05:00:39;11.67;;;3.10;;
18647;SDS011;9453;50.294;18.644;2022-07-17T05:03:06;10.00;;;2.90;;
18647;SDS011;9453;50.294;18.644;2022-07-17T05:05:33;11.40;;;2.73;;
18647;SDS011;9453;50.294;18.644;2022-07-17T05:08:00;15.30;;;3.10;;
18647;SDS011;9453;50.294;18.644;2022-07-17T05:10:28;10.90;;;2.63;;
18647;SDS011;9453;50.294;18.644;2022-07-17T05:12:55;11.80;;;2.67;;
18647;SDS011;9453;50.294;18.644;2022-07-17T05:15:22;20.50;;;3.77;;
18647;SDS011;9453;50.294;18.644;2022-07-17T05:17:49;15.23;;;2.47;;
18647;SDS011;9453;50.294;18.644;2022-07-17T05:20:16;10.43;;;2.10;;
18647;SDS011;9453;50.294;18.644;2022-07-17T05:22:43;7.70;;;2.53;;
18647;SDS011;9453;50.294;18.644;2022-07-17T05:25:10;8.80;;;1.90;;
18647;SDS011;9453;50.294;18.644;2022-07-17T05:27:38;10.15;;;2.28;;
18647;SDS011;9453;50.294;18.644;2022-07-17T05:30:05;8.23;;;2.57;;
18647;SDS011;9453;50.294;18.644;2022-07-17T05:32:33;7.63;;;2.42;;
18647;SDS011;9453;50.294;18.644;2022-07-17T05:35:00;7.67;;;2.50;;
18647;SDS011;9453;50.294;18.644;2022-07-17T05:37:27;11.82;;;1.90;;
18647;SDS011;9453;50.294;18.644;2022-07-17T05:39:54;9.77;;;1.70;;
18647;SDS011;9453;50.294;18.644;2022-07-17T05:42:21;9.93;;;2.22;;
18647;SDS011;9453;50.294;18.644;2022-07-17T05:44:49;8.32;;;1.80;;
18647;SDS011;9453;50.294;18.644;2022-07-17T05:47:16;11.77;;;2.10;;
18647;SDS011;9453;50.294;18.644;2022-07-17T05:49:43;10.75;;;1.83;;
18647;SDS011;9453;50.294;18.644;2022-07-17T05:52:10;6.90;;;2.22;;
18647;SDS011;9453;50.294;18.644;2022-07-17T05:54:36;9.48;;;1.90;;
18647;SDS011;9453;50.294;18.644;2022-07-17T05:57:03;8.07;;;1.67;;
18647;SDS011;9453;50.294;18.644;2022-07-17T05:59:30;10.27;;;2.00;;
18647;SDS011;9453;50.294;18.644;2022-07-17T06:01:59;5.57;;;1.98;;
18647;SDS011;9453;50.294;18.644;2022-07-17T06:04:26;9.45;;;1.02;;
18647;SDS011;9453;50.294;18.644;2022-07-17T06:06:53;3.80;;;1.48;;
18647;SDS011;9453;50.294;18.644;2022-07-17T06:09:19;2.95;;;1.52;;
18647;SDS011;9453;50.294;18.644;2022-07-17T06:11:46;6.60;;;1.73;;
18647;SDS011;9453;50.294;18.644;2022-07-17T06:14:13;3.55;;;1.50;;
18647;SDS011;9453;50.294;18.644;2022-07-17T06:16:40;2.65;;;1.10;;
18647;SDS011;9453;50.294;18.644;2022-07-17T06:19:09;9.50;;;1.50;;
18647;SDS011;9453;50.294;18.644;2022-07-17T06:21:35;5.53;;;1.30;;
18647;SDS011;9453;50.294;18.644;2022-07-17T06:24:02;5.72;;;1.17;;
18647;SDS011;9453;50.294;18.644;2022-07-17T06:26:29;3.83;;;1.02;;
18647;SDS011;9453;50.294;18.644;2022-07-17T06:28:56;2.95;;;1.38;;
18647;SDS011;9453;50.294;18.644;2022-07-17T06:31:23;5.55;;;1.67;;
18647;SDS011;9453;50.294;18.644;2022-07-17T06:33:50;2.53;;;1.02;;
18647;SDS011;9453;50.294;18.644;2022-07-17T06:36:18;10.30;;;1.42;;
18647;SDS011;9453;50.294;18.644;2022-07-17T06:38:45;3.55;;;1.30;;
18647;SDS011;9453;50.294;18.644;2022-07-17T06:41:12;5.55;;;1.40;;
18647;SDS011;9453;50.294;18.644;2022-07-17T06:43:39;6.05;;;1.10;;
18647;SDS011;9453;50.294;18.644;2022-07-17T06:46:06;10.13;;;1.67;;
18647;SDS011;9453;50.294;18.644;2022-07-17T06:48:33;4.07;;;1.15;;
18647;SDS011;9453;50.294;18.644;2022-07-17T06:50:59;6.05;;;1.30;;
18647;SDS011;9453;50.294;18.644;2022-07-17T06:53:28;9.27;;;1.30;;
18647;SDS011;9453;50.294;18.644;2022-07-17T06:55:54;6.65;;;1.73;;
18647;SDS011;9453;50.294;18.644;2022-07-17T06:58:21;4.85;;;1.20;;
18647;SDS011;9453;50.294;18.644;2022-07-17T07:00:48;6.82;;;1.50;;
18647;SDS011;9453;50.294;18.644;2022-07-17T07:03:15;8.13;;;1.85;;
18647;SDS011;9453;50.294;18.644;2022-07-17T07:05:42;6.43;;;1.65;;
18647;SDS011;9453;50.294;18.644;2022-07-17T07:08:09;9.32;;;1.77;;
18647;SDS011;9453;50.294;18.644;2022-07-17T07:10:37;7.97;;;1.30;;
18647;SDS011;9453;50.294;18.644;2022-07-17T07:13:04;6.78;;;1.33;;
18647;SDS011;9453;50.294;18.644;2022-07-17T07:15:31;5.72;;;1.30;;
18647;SDS011;9453;50.294;18.644;2022-07-17T07:17:58;5.82;;;1.42;;
18647;SDS011;9453;50.294;18.644;2022-07-17T07:20:25;9.52;;;1.70;;
18647;SDS011;9453;50.294;18.644;2022-07-17T07:22:52;8.10;;;1.20;;
18647;SDS011;9453;50.294;18.644;2022-07-17T07:25:18;3.22;;;1.10;;
18647;SDS011;9453;50.294;18.644;2022-07-17T07:27:48;4.82;;;1.35;;
18647;SDS011;9453;50.294;18.644;2022-07-17T07:30:14;3.65;;;0.88;;
18647;SDS011;9453;50.294;18.644;2022-07-17T07:32:41;4.00;;;1.15;;
18647;SDS011;9453;50.294;18.644;2022-07-17T07:35:08;4.45;;;1.27;;
18647;SDS011;9453;50.294;18.644;2022-07-17T07:37:36;5.85;;;1.13;;
18647;SDS011;9453;50.294;18.644;2022-07-17T07:40:04;6.80;;;1.20;;
18647;SDS011;9453;50.294;18.644;2022-07-17T07:42:32;6.32;;;1.50;;
18647;SDS011;9453;50.294;18.644;2022-07-17T07:45:00;6.78;;;1.73;;
18647;SDS011;9453;50.294;18.644;2022-07-17T07:47:27;7.28;;;1.25;;
18647;SDS011;9453;50.294;18.644;2022-07-17T07:49:54;3.70;;;1.00;;
18647;SDS011;9453;50.294;18.644;2022-07-17T07:52:21;4.70;;;1.40;;
18647;SDS011;9453;50.294;18.644;2022-07-17T07:54:48;3.60;;;1.50;;
18647;SDS011;9453;50.294;18.644;2022-07-17T07:57:15;4.45;;;0.95;;
18647;SDS011;9453;50.294;18.644;2022-07-17T07:59:42;5.18;;;1.17;;
18647;SDS011;9453;50.294;18.644;2022-07-17T08:02:11;9.68;;;1.30;;
18647;SDS011;9453;50.294;18.644;2022-07-17T08:04:38;7.05;;;1.10;;
18647;SDS011;9453;50.294;18.644;2022-07-17T08:07:05;3.83;;;0.90;;
18647;SDS011;9453;50.294;18.644;2022-07-17T08:09:31;7.15;;;1.00;;
18647;SDS011;9453;50.294;18.644;2022-07-17T08:11:58;3.08;;;1.00;;
18647;SDS011;9453;50.294;18.644;2022-07-17T08:14:25;3.17;;;0.88;;
18647;SDS011;9453;50.294;18.644;2022-07-17T08:16:52;3.53;;;1.23;;
18647;SDS011;9453;50.294;18.644;2022-07-17T08:19:20;6.15;;;1.08;;
18647;SDS011;9453;50.294;18.644;2022-07-17T08:21:47;7.75;;;1.10;;
18647;SDS011;9453;50.294;18.644;2022-07-17T08:24:14;2.38;;;0.68;;
18647;SDS011;9453;50.294;18.644;2022-07-17T08:26:41;6.32;;;1.35;;
18647;SDS011;9453;50.294;18.644;2022-07-17T08:29:08;4.72;;;1.38;;
18647;SDS011;9453;50.294;18.644;2022-07-17T08:31:35;5.63;;;0.85;;
18647;SDS011;9453;50.294;18.644;2022-07-17T08:34:02;3.65;;;1.08;;
18647;SDS011;9453;50.294;18.644;2022-07-17T08:36:30;3.90;;;1.02;;
18647;SDS011;9453;50.294;18.644;2022-07-17T08:38:57;3.05;;;1.02;;
18647;SDS011;9453;50.294;18.644;2022-07-17T08:41:24;6.35;;;1.60;;
18647;SDS011;9453;50.294;18.644;2022-07-17T08:43:51;1.98;;;0.70;;
18647;SDS011;9453;50.294;18.644;2022-07-17T08:46:20;6.85;;;1.05;;
18647;SDS011;9453;50.294;18.644;2022-07-17T08:48:50;7.13;;;1.05;;
18647;SDS011;9453;50.294;18.644;2022-07-17T08:51:22;2.30;;;0.80;;
18647;SDS011;9453;50.294;18.644;2022-07-17T08:53:53;7.93;;;1.13;;
18647;SDS011;9453;50.294;18.644;2022-07-17T08:56:20;2.30;;;0.60;;
18647;SDS011;9453;50.294;18.644;2022-07-17T08:58:46;3.90;;;0.70;;
18647;SDS011;9453;50.294;18.644;2022-07-17T09:01:14;2.28;;;0.70;;
18647;SDS011;9453;50.294;18.644;2022-07-17T09:03:52;2.95;;;0.93;;
18647;SDS011;9453;50.294;18.644;2022-07-17T09:06:20;5.90;;;0.80;;
18647;SDS011;9453;50.294;18.644;2022-07-17T09:08:47;2.17;;;0.80;;
18647;SDS011;9453;50.294;18.644;2022-07-17T09:11:27;3.78;;;0.73;;
18647;SDS011;9453;50.294;18.644;2022-07-17T09:13:55;8.20;;;1.60;;
18647;SDS011;9453;50.294;18.644;2022-07-17T09:16:22;5.70;;;0.85;;
18647;SDS011;9453;50.294;18.644;2022-07-17T09:18:49;2.38;;;0.77;;
18647;SDS011;9453;50.294;18.644;2022-07-17T09:21:19;4.10;;;0.75;;
18647;SDS011;9453;50.294;18.644;2022-07-17T09:23:56;2.50;;;0.65;;
18647;SDS011;9453;50.294;18.644;2022-07-17T09:26:24;2.45;;;1.00;;
18647;SDS011;9453;50.294;18.644;2022-07-17T09:28:53;6.30;;;0.90;;
18647;SDS011;9453;50.294;18.644;2022-07-17T09:31:24;6.82;;;0.93;;
18647;SDS011;9453;50.294;18.644;2022-07-17T09:33:52;3.83;;;0.80;;
18647;SDS011;9453;50.294;18.644;2022-07-17T09:36:19;3.10;;;0.65;;
18647;SDS011;9453;50.294;18.644;2022-07-17T09:38:46;3.42;;;0.73;;
18647;SDS011;9453;50.294;18.644;2022-07-17T09:41:18;4.00;;;0.82;;
18647;SDS011;9453;50.294;18.644;2022-07-17T09:43:48;3.30;;;0.70;;
18647;SDS011;9453;50.294;18.644;2022-07-17T09:46:18;2.83;;;0.82;;
18647;SDS011;9453;50.294;18.644;2022-07-17T09:48:47;2.10;;;0.75;;
18647;SDS011;9453;50.294;18.644;2022-07-17T09:51:16;5.30;;;0.82;;
18647;SDS011;9453;50.294;18.644;2022-07-17T09:53:45;4.35;;;1.02;;
18647;SDS011;9453;50.294;18.644;2022-07-17T09:56:14;4.57;;;0.93;;
18647;SDS011;9453;50.294;18.644;2022-07-17T09:58:42;3.72;;;0.70;;
18647;SDS011;9453;50.294;18.644;2022-07-17T10:01:12;2.45;;;0.68;;
18647;SDS011;9453;50.294;18.644;2022-07-17T10:03:40;5.80;;;0.80;;
18647;SDS011;9453;50.294;18.644;2022-07-17T10:06:07;6.07;;;0.70;;
18647;SDS011;9453;50.294;18.644;2022-07-17T10:08:35;2.90;;;0.80;;
18647;SDS011;9453;50.294;18.644;2022-07-17T10:11:02;2.13;;;0.80;;
18647;SDS011;9453;50.294;18.644;2022-07-17T10:13:29;3.65;;;0.85;;
18647;SDS011;9453;50.294;18.644;2022-07-17T10:15:57;3.85;;;0.75;;
18647;SDS011;9453;50.294;18.644;2022-07-17T10:18:34;3.83;;;0.98;;
18647;SDS011;9453;50.294;18.644;2022-07-17T10:21:11;3.85;;;0.77;;
18647;SDS011;9453;50.294;18.644;2022-07-17T10:23:41;4.32;;;0.90;;
18647;SDS011;9453;50.294;18.644;2022-07-17T10:26:08;4.72;;;0.85;;
18647;SDS011;9453;50.294;18.644;2022-07-17T10:28:38;2.13;;;0.60;;
18647;SDS011;9453;50.294;18.644;2022-07-17T10:31:06;4.97;;;1.00;;
18647;SDS011;9453;50.294;18.644;2022-07-17T10:33:35;6.78;;;0.93;;
18647;SDS011;9453;50.294;18.644;2022-07-17T10:36:02;3.38;;;0.80;;
18647;SDS011;9453;50.294;18.644;2022-07-17T10:38:29;2.03;;;0.75;;
18647;SDS011;9453;50.294;18.644;2022-07-17T10:41:07;3.60;;;0.65;;
18647;SDS011;9453;50.294;18.644;2022-07-17T10:43:41;1.63;;;0.52;;
18647;SDS011;9453;50.294;18.644;2022-07-17T10:46:09;3.03;;;0.85;;
18647;SDS011;9453;50.294;18.644;2022-07-17T10:48:38;3.28;;;0.70;;
18647;SDS011;9453;50.294;18.644;2022-07-17T10:51:06;3.83;;;0.85;;
18647;SDS011;9453;50.294;18.644;2022-07-17T10:53:34;3.33;;;0.82;;
18647;SDS011;9453;50.294;18.644;2022-07-17T10:56:02;3.53;;;1.00;;
18647;SDS011;9453;50.294;18.644;2022-07-17T10:58:32;6.13;;;0.90;;
18647;SDS011;9453;50.294;18.644;2022-07-17T11:01:01;2.50;;;0.82;;
18647;SDS011;9453;50.294;18.644;2022-07-17T11:03:30;5.03;;;1.23;;
18647;SDS011;9453;50.294;18.644;2022-07-17T11:06:21;6.25;;;1.00;;
18647;SDS011;9453;50.294;18.644;2022-07-17T11:08:51;3.35;;;0.68;;
18647;SDS011;9453;50.294;18.644;2022-07-17T11:11:21;3.85;;;1.13;;
18647;SDS011;9453;50.294;18.644;2022-07-17T11:13:49;2.58;;;0.63;;
18647;SDS011;9453;50.294;18.644;2022-07-17T11:16:26;2.00;;;0.60;;
18647;SDS011;9453;50.294;18.644;2022-07-17T11:18:54;2.97;;;0.90;;
18647;SDS011;9453;50.294;18.644;2022-07-17T11:21:24;2.30;;;0.80;;
18647;SDS011;9453;50.294;18.644;2022-07-17T11:23:51;6.70;;;1.02;;
18647;SDS011;9453;50.294;18.644;2022-07-17T11:26:19;3.22;;;1.02;;
18647;SDS011;9453;50.294;18.644;2022-07-17T11:28:47;4.50;;;1.00;;
18647;SDS011;9453;50.294;18.644;2022-07-17T11:31:15;4.88;;;0.90;;
18647;SDS011;9453;50.294;18.644;2022-07-17T11:33:48;3.17;;;0.98;;
18647;SDS011;9453;50.294;18.644;2022-07-17T11:36:19;3.58;;;0.70;;
18647;SDS011;9453;50.294;18.644;2022-07-17T11:38:49;3.28;;;0.98;;
18647;SDS011;9453;50.294;18.644;2022-07-17T11:41:16;6.20;;;1.30;;
18647;SDS011;9453;50.294;18.644;2022-07-17T11:43:43;4.45;;;1.10;;
18647;SDS011;9453;50.294;18.644;2022-07-17T11:46:11;4.47;;;1.40;;
18647;SDS011;9453;50.294;18.644;2022-07-17T11:48:40;3.35;;;0.70;;
18647;SDS011;9453;50.294;18.644;2022-07-17T11:51:07;2.67;;;0.80;;
18647;SDS011;9453;50.294;18.644;2022-07-17T11:53:35;2.92;;;0.80;;
18647;SDS011;9453;50.294;18.644;2022-07-17T11:56:05;3.88;;;1.10;;
18647;SDS011;9453;50.294;18.644;2022-07-17T11:58:42;1.77;;;0.85;;
18647;SDS011;9453;50.294;18.644;2022-07-17T12:01:11;4.35;;;1.42;;
18647;SDS011;9453;50.294;18.644;2022-07-17T12:03:38;5.38;;;0.98;;
18647;SDS011;9453;50.294;18.644;2022-07-17T12:06:05;1.83;;;0.75;;
18647;SDS011;9453;50.294;18.644;2022-07-17T12:08:32;2.75;;;0.82;;
18647;SDS011;9453;50.294;18.644;2022-07-17T12:11:05;2.08;;;0.70;;
18647;SDS011;9453;50.294;18.644;2022-07-17T12:13:40;4.28;;;1.10;;
18647;SDS011;9453;50.294;18.644;2022-07-17T12:16:22;4.55;;;1.08;;
18647;SDS011;9453;50.294;18.644;2022-07-17T12:18:54;4.25;;;0.80;;
18647;SDS011;9453;50.294;18.644;2022-07-17T12:21:30;6.45;;;1.05;;
18647;SDS011;9453;50.294;18.644;2022-07-17T12:23:59;3.47;;;1.40;;
18647;SDS011;9453;50.294;18.644;2022-07-17T12:26:29;11.15;;;1.63;;
18647;SDS011;9453;50.294;18.644;2022-07-17T12:28:57;4.20;;;0.90;;
18647;SDS011;9453;50.294;18.644;2022-07-17T12:31:24;4.75;;;0.80;;
18647;SDS011;9453;50.294;18.644;2022-07-17T12:33:52;2.92;;;1.15;;
18647;SDS011;9453;50.294;18.644;2022-07-17T12:36:20;3.75;;;0.90;;
18647;SDS011;9453;50.294;18.644;2022-07-17T12:38:48;1.55;;;0.73;;
18647;SDS011;9453;50.294;18.644;2022-07-17T12:41:15;3.83;;;0.80;;
18647;SDS011;9453;50.294;18.644;2022-07-17T12:43:44;5.28;;;0.75;;
18647;SDS011;9453;50.294;18.644;2022-07-17T12:46:11;3.38;;;0.85;;
18647;SDS011;9453;50.294;18.644;2022-07-17T12:48:38;3.47;;;0.88;;
18647;SDS011;9453;50.294;18.644;2022-07-17T12:51:08;3.30;;;0.93;;
18647;SDS011;9453;50.294;18.644;2022-07-17T12:53:35;3.72;;;1.20;;
18647;SDS011;9453;50.294;18.644;2022-07-17T12:56:02;3.17;;;0.85;;
18647;SDS011;9453;50.294;18.644;2022-07-17T12:58:30;1.88;;;0.80;;
18647;SDS011;9453;50.294;18.644;2022-07-17T13:00:58;2.30;;;0.80;;
18647;SDS011;9453;50.294;18.644;2022-07-17T13:03:25;2.08;;;0.60;;
18647;SDS011;9453;50.294;18.644;2022-07-17T13:05:52;2.20;;;0.70;;
18647;SDS011;9453;50.294;18.644;2022-07-17T13:08:19;1.20;;;0.60;;
18647;SDS011;9453;50.294;18.644;2022-07-17T13:10:46;4.18;;;0.85;;
18647;SDS011;9453;50.294;18.644;2022-07-17T13:13:13;4.03;;;0.80;;
18647;SDS011;9453;50.294;18.644;2022-07-17T13:15:40;1.00;;;0.70;;
18647;SDS011;9453;50.294;18.644;2022-07-17T13:18:08;3.40;;;1.08;;
18647;SDS011;9453;50.294;18.644;2022-07-17T13:20:35;1.27;;;0.60;;
18647;SDS011;9453;50.294;18.644;2022-07-17T13:23:02;1.75;;;0.68;;
18647;SDS011;9453;50.294;18.644;2022-07-17T13:25:29;1.63;;;0.55;;
18647;SDS011;9453;50.294;18.644;2022-07-17T13:27:56;1.98;;;0.55;;
18647;SDS011;9453;50.294;18.644;2022-07-17T13:30:23;4.55;;;0.77;;
18647;SDS011;9453;50.294;18.644;2022-07-17T13:32:50;2.67;;;0.90;;
18647;SDS011;9453;50.294;18.644;2022-07-17T13:35:19;3.70;;;0.88;;
18647;SDS011;9453;50.294;18.644;2022-07-17T13:37:47;2.08;;;0.68;;
18647;SDS011;9453;50.294;18.644;2022-07-17T13:40:14;4.22;;;0.70;;
18647;SDS011;9453;50.294;18.644;2022-07-17T13:42:43;2.45;;;0.70;;
18647;SDS011;9453;50.294;18.644;2022-07-17T13:45:12;2.08;;;0.80;;
18647;SDS011;9453;50.294;18.644;2022-07-17T13:47:39;3.05;;;0.50;;
18647;SDS011;9453;50.294;18.644;2022-07-17T13:50:06;1.85;;;0.60;;
18647;SDS011;9453;50.294;18.644;2022-07-17T13:52:36;2.55;;;0.73;;
18647;SDS011;9453;50.294;18.644;2022-07-17T13:55:04;4.05;;;0.98;;
18647;SDS011;9453;50.294;18.644;2022-07-17T13:57:31;2.08;;;0.60;;
18647;SDS011;9453;50.294;18.644;2022-07-17T13:59:58;4.45;;;1.17;;
18647;SDS011;9453;50.294;18.644;2022-07-17T14:02:25;1.42;;;0.50;;
18647;SDS011;9453;50.294;18.644;2022-07-17T14:04:53;1.85;;;0.82;;
18647;SDS011;9453;50.294;18.644;2022-07-17T14:07:20;1.27;;;0.63;;
18647;SDS011;9453;50.294;18.644;2022-07-17T14:09:48;1.17;;;0.60;;
18647;SDS011;9453;50.294;18.644;2022-07-17T14:12:15;1.55;;;0.73;;
18647;SDS011;9453;50.294;18.644;2022-07-17T14:14:42;2.53;;;0.82;;
18647;SDS011;9453;50.294;18.644;2022-07-17T14:17:08;3.08;;;1.20;;
18647;SDS011;9453;50.294;18.644;2022-07-17T14:19:35;1.65;;;0.68;;
18647;SDS011;9453;50.294;18.644;2022-07-17T14:22:03;1.55;;;0.80;;
18647;SDS011;9453;50.294;18.644;2022-07-17T14:24:30;1.60;;;0.80;;
18647;SDS011;9453;50.294;18.644;2022-07-17T14:26:59;3.22;;;0.90;;
18647;SDS011;9453;50.294;18.644;2022-07-17T14:29:26;2.45;;;1.05;;
18647;SDS011;9453;50.294;18.644;2022-07-17T14:31:52;3.30;;;1.00;;
18647;SDS011;9453;50.294;18.644;2022-07-17T14:34:20;2.00;;;0.63;;
18647;SDS011;9453;50.294;18.644;2022-07-17T14:36:47;2.22;;;0.60;;
18647;SDS011;9453;50.294;18.644;2022-07-17T14:39:14;1.77;;;0.82;;
18647;SDS011;9453;50.294;18.644;2022-07-17T14:41:42;3.72;;;0.80;;
18647;SDS011;9453;50.294;18.644;2022-07-17T14:44:11;2.00;;;0.90;;
18647;SDS011;9453;50.294;18.644;2022-07-17T14:46:38;1.48;;;0.75;;
18647;SDS011;9453;50.294;18.644;2022-07-17T14:49:05;1.73;;;0.70;;
18647;SDS011;9453;50.294;18.644;2022-07-17T14:51:32;3.67;;;0.77;;
18647;SDS011;9453;50.294;18.644;2022-07-17T14:53:59;2.58;;;0.50;;
18647;SDS011;9453;50.294;18.644;2022-07-17T14:56:26;2.53;;;0.80;;
18647;SDS011;9453;50.294;18.644;2022-07-17T14:58:53;2.15;;;0.77;;
18647;SDS011;9453;50.294;18.644;2022-07-17T15:01:22;4.72;;;1.08;;
18647;SDS011;9453;50.294;18.644;2022-07-17T15:03:48;3.10;;;0.75;;
18647;SDS011;9453;50.294;18.644;2022-07-17T15:06:15;5.40;;;0.80;;
18647;SDS011;9453;50.294;18.644;2022-07-17T15:08:42;1.75;;;0.75;;
18647;SDS011;9453;50.294;18.644;2022-07-17T15:11:10;2.05;;;0.77;;
18647;SDS011;9453;50.294;18.644;2022-07-17T15:13:37;2.28;;;0.90;;
18647;SDS011;9453;50.294;18.644;2022-07-17T15:16:04;3.90;;;0.70;;
18647;SDS011;9453;50.294;18.644;2022-07-17T15:18:33;1.58;;;0.75;;
18647;SDS011;9453;50.294;18.644;2022-07-17T15:20:59;3.67;;;0.80;;
18647;SDS011;9453;50.294;18.644;2022-07-17T15:23:27;2.53;;;0.73;;
18647;SDS011;9453;50.294;18.644;2022-07-17T15:25:53;5.22;;;0.80;;
18647;SDS011;9453;50.294;18.644;2022-07-17T15:28:20;2.97;;;0.90;;
18647;SDS011;9453;50.294;18.644;2022-07-17T15:30:47;4.55;;;1.10;;
18647;SDS011;9453;50.294;18.644;2022-07-17T15:33:14;3.10;;;1.00;;
18647;SDS011;9453;50.294;18.644;2022-07-17T15:35:42;2.70;;;0.98;;
18647;SDS011;9453;50.294;18.644;2022-07-17T15:38:10;3.60;;;0.80;;
18647;SDS011;9453;50.294;18.644;2022-07-17T15:40:37;4.25;;;1.00;;
18647;SDS011;9453;50.294;18.644;2022-07-17T15:43:04;1.63;;;0.82;;
18647;SDS011;9453;50.294;18.644;2022-07-17T15:45:30;3.83;;;0.70;;
18647;SDS011;9453;50.294;18.644;2022-07-17T15:47:57;3.30;;;0.77;;
18647;SDS011;9453;50.294;18.644;2022-07-17T15:50:24;3.28;;;1.10;;
18647;SDS011;9453;50.294;18.644;2022-07-17T15:52:52;2.58;;;1.08;;
18647;SDS011;9453;50.294;18.644;2022-07-17T15:55:19;3.38;;;1.20;;
18647;SDS011;9453;50.294;18.644;2022-07-17T15:57:46;2.45;;;1.00;;
18647;SDS011;9453;50.294;18.644;2022-07-17T16:00:13;2.97;;;0.95;;
18647;SDS011;9453;50.294;18.644;2022-07-17T16:02:40;4.10;;;0.68;;
18647;SDS011;9453;50.294;18.644;2022-07-17T16:05:07;2.55;;;1.17;;
18647;SDS011;9453;50.294;18.644;2022-07-17T16:07:34;1.88;;;0.88;;
18647;SDS011;9453;50.294;18.644;2022-07-17T16:10:03;1.63;;;0.80;;
18647;SDS011;9453;50.294;18.644;2022-07-17T16:12:31;3.03;;;0.98;;
18647;SDS011;9453;50.294;18.644;2022-07-17T16:14:58;6.07;;;0.90;;
18647;SDS011;9453;50.294;18.644;2022-07-17T16:17:25;3.63;;;0.95;;
18647;SDS011;9453;50.294;18.644;2022-07-17T16:19:53;2.60;;;1.00;;
18647;SDS011;9453;50.294;18.644;2022-07-17T16:22:20;1.58;;;0.73;;
18647;SDS011;9453;50.294;18.644;2022-07-17T16:24:47;3.10;;;1.02;;
18647;SDS011;9453;50.294;18.644;2022-07-17T16:27:16;1.80;;;0.90;;
18647;SDS011;9453;50.294;18.644;2022-07-17T16:29:43;3.35;;;1.10;;
18647;SDS011;9453;50.294;18.644;2022-07-17T16:32:10;3.40;;;0.88;;
18647;SDS011;9453;50.294;18.644;2022-07-17T16:34:36;2.75;;;0.98;;
18647;SDS011;9453;50.294;18.644;2022-07-17T16:37:03;3.00;;;0.77;;
18647;SDS011;9453;50.294;18.644;2022-07-17T16:39:30;1.70;;;1.00;;
18647;SDS011;9453;50.294;18.644;2022-07-17T16:41:57;4.45;;;1.02;;
18647;SDS011;9453;50.294;18.644;2022-07-17T16:44:26;2.65;;;1.25;;
18647;SDS011;9453;50.294;18.644;2022-07-17T16:46:52;1.73;;;1.20;;
18647;SDS011;9453;50.294;18.644;2022-07-17T16:49:19;1.55;;;0.80;;
18647;SDS011;9453;50.294;18.644;2022-07-17T16:51:47;3.33;;;0.77;;
18647;SDS011;9453;50.294;18.644;2022-07-17T16:54:14;3.13;;;1.00;;
18647;SDS011;9453;50.294;18.644;2022-07-17T16:56:41;2.42;;;0.70;;
18647;SDS011;9453;50.294;18.644;2022-07-17T16:59:08;2.35;;;0.70;;
18647;SDS011;9453;50.294;18.644;2022-07-17T17:01:36;1.40;;;0.70;;
18647;SDS011;9453;50.294;18.644;2022-07-17T17:04:04;4.50;;;0.80;;
18647;SDS011;9453;50.294;18.644;2022-07-17T17:06:31;2.17;;;1.08;;
18647;SDS011;9453;50.294;18.644;2022-07-17T17:08:58;3.28;;;0.98;;
18647;SDS011;9453;50.294;18.644;2022-07-17T17:11:25;4.60;;;1.13;;
18647;SDS011;9453;50.294;18.644;2022-07-17T17:13:52;4.55;;;1.10;;
18647;SDS011;9453;50.294;18.644;2022-07-17T17:16:18;3.42;;;1.10;;
18647;SDS011;9453;50.294;18.644;2022-07-17T17:18:47;3.22;;;1.00;;
18647;SDS011;9453;50.294;18.644;2022-07-17T17:21:14;3.95;;;1.10;;
18647;SDS011;9453;50.294;18.644;2022-07-17T17:23:44;2.53;;;0.82;;
18647;SDS011;9453;50.294;18.644;2022-07-17T17:26:11;3.72;;;0.90;;
18647;SDS011;9453;50.294;18.644;2022-07-17T17:28:38;4.00;;;1.10;;
18647;SDS011;9453;50.294;18.644;2022-07-17T17:31:04;2.92;;;0.88;;
18647;SDS011;9453;50.294;18.644;2022-07-17T17:33:31;2.88;;;0.98;;
18647;SDS011;9453;50.294;18.644;2022-07-17T17:36:00;3.08;;;1.77;;
18647;SDS011;9453;50.294;18.644;2022-07-17T17:38:27;4.68;;;0.90;;
18647;SDS011;9453;50.294;18.644;2022-07-17T17:40:55;3.35;;;1.02;;
18647;SDS011;9453;50.294;18.644;2022-07-17T17:43:22;1.77;;;0.90;;
18647;SDS011;9453;50.294;18.644;2022-07-17T17:45:49;1.33;;;0.70;;
18647;SDS011;9453;50.294;18.644;2022-07-17T17:48:18;5.28;;;0.88;;
18647;SDS011;9453;50.294;18.644;2022-07-17T17:50:45;2.58;;;1.10;;
18647;SDS011;9453;50.294;18.644;2022-07-17T17:53:13;4.47;;;0.75;;
18647;SDS011;9453;50.294;18.644;2022-07-17T17:55:40;6.72;;;0.90;;
18647;SDS011;9453;50.294;18.644;2022-07-17T17:58:07;2.63;;;0.90;;
18647;SDS011;9453;50.294;18.644;2022-07-17T18:00:34;3.72;;;1.13;;
18647;SDS011;9453;50.294;18.644;2022-07-17T18:03:01;2.83;;;1.05;;
18647;SDS011;9453;50.294;18.644;2022-07-17T18:05:29;3.45;;;0.75;;
18647;SDS011;9453;50.294;18.644;2022-07-17T18:07:56;7.13;;;1.10;;
18647;SDS011;9453;50.294;18.644;2022-07-17T18:10:24;1.75;;;0.98;;
18647;SDS011;9453;50.294;18.644;2022-07-17T18:12:51;1.25;;;0.80;;
18647;SDS011;9453;50.294;18.644;2022-07-17T18:15:18;5.97;;;1.05;;
18647;SDS011;9453;50.294;18.644;2022-07-17T18:17:45;2.08;;;1.00;;
18647;SDS011;9453;50.294;18.644;2022-07-17T18:20:12;3.47;;;0.93;;
18647;SDS011;9453;50.294;18.644;2022-07-17T18:22:40;2.45;;;1.20;;
18647;SDS011;9453;50.294;18.644;2022-07-17T18:25:07;4.63;;;1.27;;
18647;SDS011;9453;50.294;18.644;2022-07-17T18:27:36;4.43;;;1.75;;
18647;SDS011;9453;50.294;18.644;2022-07-17T18:30:03;2.60;;;1.55;;
18647;SDS011;9453;50.294;18.644;2022-07-17T18:32:31;4.55;;;1.70;;
18647;SDS011;9453;50.294;18.644;2022-07-17T18:34:58;3.65;;;1.20;;
18647;SDS011;9453;50.294;18.644;2022-07-17T18:37:25;1.85;;;0.90;;
18647;SDS011;9453;50.294;18.644;2022-07-17T18:39:52;2.25;;;1.30;;
18647;SDS011;9453;50.294;18.644;2022-07-17T18:42:19;3.83;;;1.38;;
18647;SDS011;9453;50.294;18.644;2022-07-17T18:44:48;5.03;;;1.30;;
18647;SDS011;9453;50.294;18.644;2022-07-17T18:47:14;3.10;;;1.25;;
18647;SDS011;9453;50.294;18.644;2022-07-17T18:49:42;1.10;;;0.80;;